Clearlake, Washington
Current Conditions -  °F | °C
As of 2:35 PM on Sunday 25 Jan 2015 (Local Time) from KBVS Reporting Station
Clear Clear  
Wind Chill: 55°   Ceiling: Unl
Heat Index: 55°   Visibility: 9mi
Dew Point: 54°   Wind: 7mph
Humidity: 94%   Direction: 300°WNW
Pressure: 30.11"   Gusts: NA
Location:  48.46°N, 122.23°W
Report Text: KBVS 252235Z AUTO 30006KT 9SM CLR 13/12 A3011 RMK A01 P000
Loading
Personal Weather Stations






























Interactive Weather Map New forecast layout! Learn more

10-Day Weather Forecast

Advertisements
Track Severe Weather on mobile